Terminal Aerodrome Forecast
Issued by NWS

Home | Current Version | Previous Version | Text Only | Print | Product List | Glossary On
Versions: 1 2 3 4 5 6 7 8 9 10 11 12 13 14 15 16 17 18 19
000
FTUS43 KDTX 011700
TAFMBS
TAF
KMBS 011727Z 0118/0218 14005KT P6SM BKN022 BKN035
     FM012000 14006KT P6SM SCT030 BKN040
     FM020100 14004KT P6SM SCT035
     FM020800 16004KT 3SM BR OVC008
     FM021500 16007KT P6SM BKN060 OVC150=

USA.gov is the U.S. government's official web portal to all federal, state and local government web resources and services.